createdAt,value
2018-06-15T00:02:19.761Z,100711.84
2018-06-15T00:04:47.772Z,100713.80
2018-06-15T00:07:15.873Z,100709.33
2018-06-15T00:09:43.848Z,100715.77
2018-06-15T00:12:11.860Z,100716.19
2018-06-15T00:14:39.866Z,100716.14
2018-06-15T00:17:07.892Z,100719.83
2018-06-15T00:19:35.901Z,100713.64
2018-06-15T00:22:04.004Z,100717.39
2018-06-15T00:24:32.021Z,100714.70
2018-06-15T00:27:00.032Z,100718.48
2018-06-15T00:29:28.118Z,100716.56
2018-06-15T00:31:56.089Z,100715.64
2018-06-15T00:34:24.108Z,100712.20
2018-06-15T00:36:52.110Z,100714.02
2018-06-15T00:39:20.137Z,100719.44
2018-06-15T00:41:48.148Z,100717.61
2018-06-15T00:44:16.172Z,100723.95
2018-06-15T00:46:44.161Z,100720.36
2018-06-15T00:49:12.181Z,100719.61
2018-06-15T00:51:40.197Z,100715.77
2018-06-15T00:54:08.205Z,100717.48
2018-06-15T00:56:46.466Z,100714.17
2018-06-15T00:59:14.644Z,100719.02
2018-06-15T01:01:42.820Z,100713.67
2018-06-15T01:04:10.839Z,100710.58
2018-06-15T01:06:38.833Z,100715.92
2018-06-15T01:09:07.920Z,100715.41
2018-06-15T01:11:36.240Z,100711.25
2018-06-15T01:14:04.315Z,100710.90
2018-06-15T01:16:32.345Z,100715.25
2018-06-15T01:19:00.620Z,100712.15
2018-06-15T01:21:28.640Z,100710.38
2018-06-15T01:23:56.645Z,100708.11
2018-06-15T01:26:24.666Z,100715.44
2018-06-15T01:28:52.668Z,100713.50
2018-06-15T01:31:20.676Z,100712.04
2018-06-15T01:33:48.696Z,100705.56
2018-06-15T01:36:16.701Z,100710.07
2018-06-15T01:38:44.709Z,100714.91
2018-06-15T01:41:12.721Z,100712.94
2018-06-15T01:43:40.846Z,100719.03
2018-06-15T01:46:08.844Z,100721.23
2018-06-15T01:48:36.855Z,100712.23
2018-06-15T01:51:04.897Z,100712.65
2018-06-15T01:53:32.917Z,100719.81
2018-06-15T01:56:00.932Z,100722.20
2018-06-15T01:58:28.917Z,100719.02
2018-06-15T02:00:56.914Z,100722.73
2018-06-15T02:03:24.888Z,100720.38
2018-06-15T02:05:53.049Z,100713.78
2018-06-15T02:08:21.084Z,100716.52
2018-06-15T02:10:49.108Z,100719.11
2018-06-15T02:13:17.184Z,100713.69
2018-06-15T02:15:45.217Z,100716.09
2018-06-15T02:18:13.208Z,100715.73
2018-06-15T02:20:41.216Z,100717.89
2018-06-15T02:23:09.213Z,100720.45
2018-06-15T02:25:37.285Z,100721.97
2018-06-15T02:28:05.334Z,100718.19
2018-06-15T02:30:33.308Z,100715.71
2018-06-15T02:33:01.319Z,100717.89
2018-06-15T02:35:29.308Z,100717.48
2018-06-15T02:40:36.816Z,100715.66
2018-06-15T02:43:04.845Z,100722.42
2018-06-15T02:45:32.926Z,100722.63
2018-06-15T02:48:00.932Z,100725.58
2018-06-15T02:50:29.113Z,100727.27
2018-06-15T02:52:57.137Z,100735.38
2018-06-15T02:55:25.161Z,100735.27
2018-06-15T02:57:53.294Z,100736.02
2018-06-15T03:00:21.303Z,100735.06
2018-06-15T03:02:49.318Z,100736.23
2018-06-15T03:05:17.354Z,100742.41
2018-06-15T03:07:45.416Z,100744.30
2018-06-15T03:10:13.393Z,100737.97
2018-06-15T03:12:41.428Z,100739.52
2018-06-15T03:15:09.440Z,100740.52
2018-06-15T03:17:37.468Z,100745.84
2018-06-15T03:20:05.524Z,100748.06
2018-06-15T03:22:33.572Z,100744.52
2018-06-15T03:25:01.593Z,100745.44
2018-06-15T03:27:29.685Z,100747.31
2018-06-15T03:29:57.668Z,100752.04
2018-06-15T03:32:25.648Z,100753.01
2018-06-15T03:34:53.708Z,100753.52
2018-06-15T03:37:21.844Z,100752.80
2018-06-15T03:39:49.851Z,100751.96
2018-06-15T03:42:17.880Z,100756.75
2018-06-15T03:44:45.896Z,100756.41
2018-06-15T03:47:13.917Z,100764.30
2018-06-15T03:49:41.958Z,100762.25
2018-06-15T03:52:09.974Z,100765.34
2018-06-15T03:54:38.015Z,100770.69
2018-06-15T03:57:06.050Z,100772.44
2018-06-15T03:59:34.051Z,100777.23
2018-06-15T04:02:02.057Z,100782.59
2018-06-15T04:04:30.055Z,100781.38
2018-06-15T04:06:58.053Z,100784.67
2018-06-15T04:09:26.092Z,100787.11
2018-06-15T04:11:54.165Z,100793.30
2018-06-15T04:14:22.189Z,100794.14
2018-06-15T04:16:50.200Z,100796.80
2018-06-15T04:19:18.225Z,100793.84
2018-06-15T04:21:46.278Z,100796.09
2018-06-15T04:24:14.329Z,100802.89
2018-06-15T04:26:42.488Z,100803.19
2018-06-15T04:29:10.501Z,100805.16
2018-06-15T04:31:38.476Z,100799.17
2018-06-15T04:34:06.521Z,100806.13
2018-06-15T04:36:34.521Z,100801.27
2018-06-15T04:39:02.520Z,100806.27
2018-06-15T04:41:30.552Z,100805.59
2018-06-15T04:43:58.568Z,100805.23
2018-06-15T04:46:26.581Z,100813.80
2018-06-15T04:48:54.592Z,100812.63
2018-06-15T04:51:22.588Z,100821.06
2018-06-15T04:53:50.588Z,100808.17
2018-06-15T04:56:18.791Z,100802.84
2018-06-15T04:58:46.753Z,100813.23
2018-06-15T05:01:14.773Z,100810.42
2018-06-15T05:03:42.789Z,100817.53
2018-06-15T05:06:10.787Z,100813.02
2018-06-15T05:08:38.872Z,100817.81
2018-06-15T05:11:06.920Z,100817.84
2018-06-15T05:13:34.988Z,100814.56
2018-06-15T05:16:03.000Z,100820.91
2018-06-15T05:18:31.010Z,100821.40
2018-06-15T05:20:58.996Z,100820.27
2018-06-15T05:23:27.257Z,100829.13
2018-06-15T05:25:55.249Z,100829.47
2018-06-15T05:28:23.321Z,100831.93
2018-06-15T05:30:51.322Z,100834.81
2018-06-15T05:33:19.324Z,100833.34
2018-06-15T05:35:47.309Z,100839.30
2018-06-15T05:38:15.306Z,100838.83
2018-06-15T05:40:43.294Z,100837.55
2018-06-15T05:43:11.281Z,100849.36
2018-06-15T05:45:39.277Z,100848.22
2018-06-15T05:48:07.341Z,100847.95
2018-06-15T05:50:35.362Z,100854.54
2018-06-15T05:53:03.358Z,100860.81
2018-06-15T05:55:31.381Z,100856.46
2018-06-15T05:57:59.420Z,100854.24
2018-06-15T06:00:27.433Z,100865.07
2018-06-15T06:02:55.658Z,100866.61
2018-06-15T06:05:23.694Z,100863.92
2018-06-15T06:07:51.737Z,100859.98
2018-06-15T06:10:19.808Z,100861.09
2018-06-15T06:12:47.821Z,100860.94
2018-06-15T06:15:15.825Z,100862.40
2018-06-15T06:17:43.848Z,100870.00
2018-06-15T06:20:11.876Z,100876.00
2018-06-15T06:22:39.881Z,100877.58
2018-06-15T06:25:07.996Z,100879.61
2018-06-15T06:27:36.003Z,100876.34
2018-06-15T06:30:04.766Z,100880.56
2018-06-15T06:32:32.847Z,100883.38
2018-06-15T06:35:00.866Z,100885.97
2018-06-15T06:37:28.877Z,100888.01
2018-06-15T06:39:56.876Z,100885.19
2018-06-15T06:42:24.883Z,100885.25
2018-06-15T06:44:52.869Z,100888.53
2018-06-15T06:47:20.882Z,100883.84
2018-06-15T06:49:48.876Z,100890.23
2018-06-15T06:52:16.885Z,100891.90
2018-06-15T06:54:44.926Z,100884.00
2018-06-15T06:57:12.920Z,100896.72
2018-06-15T06:59:40.916Z,100897.98
2018-06-15T07:02:08.904Z,100904.19
2018-06-15T07:04:36.936Z,100900.88
2018-06-15T07:07:04.973Z,100903.81
2018-06-15T07:09:33.139Z,100908.44
2018-06-15T07:12:01.161Z,100906.09
2018-06-15T07:14:29.349Z,100910.83
2018-06-15T07:16:57.440Z,100916.07
2018-06-15T07:19:25.617Z,100904.75
2018-06-15T07:21:53.653Z,100909.43
2018-06-15T07:24:21.676Z,100912.34
2018-06-15T07:26:49.714Z,100917.30
2018-06-15T07:29:17.851Z,100909.98
2018-06-15T07:31:46.105Z,100915.19
2018-06-15T07:34:14.112Z,100916.22
2018-06-15T07:36:42.158Z,100922.68
2018-06-15T07:39:11.393Z,100920.04
2018-06-15T07:41:39.400Z,100918.14
2018-06-15T07:44:07.516Z,100921.37
2018-06-15T07:46:35.701Z,100919.25
2018-06-15T07:49:03.694Z,100914.89
2018-06-15T07:51:31.714Z,100920.56
2018-06-15T07:53:59.770Z,100925.69
2018-06-15T07:56:27.801Z,100923.98
2018-06-15T07:58:55.844Z,100929.47
2018-06-15T08:01:23.868Z,100929.22
2018-06-15T08:04:02.266Z,100922.34
2018-06-15T08:06:30.256Z,100925.66
2018-06-15T08:08:58.677Z,100928.47
2018-06-15T08:11:26.747Z,100927.59
2018-06-15T08:13:54.776Z,100929.56
2018-06-15T08:16:22.795Z,100924.89
2018-06-15T08:18:50.800Z,100924.37
2018-06-15T08:21:18.821Z,100932.53
2018-06-15T08:23:47.004Z,100931.74
2018-06-15T08:26:15.052Z,100931.51
2018-06-15T08:28:43.096Z,100936.06
2018-06-15T08:31:11.101Z,100933.87
2018-06-15T08:33:39.131Z,100941.69
2018-06-15T08:36:07.154Z,100937.87
2018-06-15T08:38:35.205Z,100934.03
2018-06-15T08:41:03.252Z,100933.77
2018-06-15T08:43:31.273Z,100934.80
2018-06-15T08:45:59.250Z,100933.57
2018-06-15T08:48:27.508Z,100935.28
2018-06-15T08:50:55.528Z,100940.44
2018-06-15T08:53:23.556Z,100933.45
2018-06-15T08:55:51.565Z,100939.76
2018-06-15T08:58:19.604Z,100937.12
2018-06-15T09:00:48.085Z,100942.69
2018-06-15T09:03:16.445Z,100941.41
2018-06-15T09:05:44.385Z,100944.12
2018-06-15T09:08:12.509Z,100935.37
2018-06-15T09:10:40.527Z,100936.78
2018-06-15T09:13:08.532Z,100940.41
2018-06-15T09:15:36.539Z,100937.94
2018-06-15T09:18:04.614Z,100935.47
2018-06-15T09:20:32.606Z,100928.64
2018-06-15T09:23:00.736Z,100923.64
2018-06-15T09:25:28.725Z,100923.11
2018-06-15T09:27:56.713Z,100925.85
2018-06-15T09:30:24.697Z,100926.58
2018-06-15T09:32:52.752Z,100933.45
2018-06-15T09:35:20.764Z,100934.05
2018-06-15T09:37:48.773Z,100934.14
2018-06-15T09:40:16.784Z,100930.39
2018-06-15T09:42:44.795Z,100928.75
2018-06-15T09:45:12.853Z,100927.81
2018-06-15T09:47:41.170Z,100922.22
2018-06-15T09:50:09.192Z,100935.58
2018-06-15T09:52:37.208Z,100938.23
2018-06-15T09:55:05.255Z,100935.67
2018-06-15T09:57:33.313Z,100937.22
2018-06-15T10:00:01.325Z,100932.95
2018-06-15T10:02:29.316Z,100927.18
2018-06-15T10:04:57.341Z,100927.74
2018-06-15T10:07:25.332Z,100928.67
2018-06-15T10:09:53.352Z,100939.61
2018-06-15T10:12:21.345Z,100936.41
2018-06-15T10:14:49.428Z,100937.95
2018-06-15T10:17:17.434Z,100938.07
2018-06-15T10:19:45.462Z,100935.97
2018-06-15T10:22:13.472Z,100937.09
2018-06-15T10:24:41.485Z,100935.66
2018-06-15T10:27:09.530Z,100935.23
2018-06-15T10:29:37.684Z,100934.41
2018-06-15T10:32:05.857Z,100937.44
2018-06-15T10:34:33.864Z,100931.59
2018-06-15T10:37:01.849Z,100928.52
2018-06-15T10:39:29.928Z,100927.10
2018-06-15T10:41:57.865Z,100923.02
2018-06-15T10:44:25.857Z,100929.98
2018-06-15T10:46:53.856Z,100929.28
2018-06-15T10:49:21.840Z,100925.63
2018-06-15T10:51:49.844Z,100924.75
2018-06-15T10:54:17.865Z,100926.44
2018-06-15T10:56:45.853Z,100920.77
2018-06-15T10:59:13.857Z,100917.88
2018-06-15T11:01:41.830Z,100921.18
2018-06-15T11:04:09.962Z,100920.50
2018-06-15T11:06:37.942Z,100919.34
2018-06-15T11:09:07.654Z,100915.32
2018-06-15T11:11:35.696Z,100921.23
2018-06-15T11:14:03.868Z,100912.67
2018-06-15T11:16:31.940Z,100919.22
2018-06-15T11:18:59.970Z,100909.77
2018-06-15T11:21:28.017Z,100899.31
2018-06-15T11:23:56.024Z,100898.55
2018-06-15T11:26:24.029Z,100898.30
2018-06-15T11:28:52.036Z,100898.42
2018-06-15T11:31:20.031Z,100905.97
2018-06-15T11:33:48.050Z,100901.24
2018-06-15T11:36:16.113Z,100895.55
2018-06-15T11:38:44.144Z,100898.08
2018-06-15T11:41:12.300Z,100898.41
2018-06-15T11:43:40.362Z,100900.34
2018-06-15T11:46:08.357Z,100893.89
2018-06-15T11:48:36.366Z,100892.14
2018-06-15T11:51:04.397Z,100889.33
2018-06-15T11:53:32.473Z,100883.98
2018-06-15T11:56:00.481Z,100887.87
2018-06-15T11:58:28.517Z,100883.06
2018-06-15T12:00:56.517Z,100887.53
2018-06-15T12:03:24.593Z,100887.24
2018-06-15T12:05:52.688Z,100886.07
2018-06-15T12:08:20.719Z,100879.91
2018-06-15T12:10:49.347Z,100875.41
2018-06-15T12:13:17.549Z,100887.55
2018-06-15T12:15:45.593Z,100887.01
2018-06-15T12:18:13.592Z,100879.33
2018-06-15T12:20:41.614Z,100874.95
2018-06-15T12:23:09.714Z,100873.59
2018-06-15T12:25:38.286Z,100873.44
2018-06-15T12:28:06.352Z,100872.58
2018-06-15T12:30:34.354Z,100873.31
2018-06-15T12:33:02.964Z,100877.89
2018-06-15T12:35:30.993Z,100872.38
2018-06-15T12:37:59.146Z,100869.00
2018-06-15T12:40:27.140Z,100868.80
2018-06-15T12:42:55.157Z,100868.80
2018-06-15T12:45:23.226Z,100871.71
2018-06-15T12:47:51.217Z,100874.14
2018-06-15T12:50:19.507Z,100870.92
2018-06-15T12:52:47.492Z,100872.64
2018-06-15T12:55:15.488Z,100876.77
2018-06-15T12:57:43.484Z,100874.84
2018-06-15T13:00:11.520Z,100872.00
2018-06-15T13:02:39.546Z,100873.55
2018-06-15T13:05:07.646Z,100866.50
2018-06-15T13:07:35.682Z,100863.72
2018-06-15T13:10:03.861Z,100867.56
2018-06-15T13:12:31.842Z,100866.27
2018-06-15T13:14:59.854Z,100862.34
2018-06-15T13:17:27.886Z,100853.80
2018-06-15T13:19:56.187Z,100854.63
2018-06-15T13:22:24.176Z,100852.36
2018-06-15T13:24:52.500Z,100858.06
2018-06-15T13:27:20.545Z,100852.44
2018-06-15T13:29:48.545Z,100859.24
2018-06-15T13:32:16.618Z,100855.42
2018-06-15T13:34:44.633Z,100845.42
2018-06-15T13:37:12.730Z,100850.05
2018-06-15T13:39:40.919Z,100861.83
2018-06-15T13:42:08.904Z,100860.52
2018-06-15T13:44:36.908Z,100862.05
2018-06-15T13:47:05.012Z,100855.91
2018-06-15T13:49:33.042Z,100846.33
2018-06-15T13:52:01.061Z,100845.17
2018-06-15T13:54:29.064Z,100850.70
2018-06-15T13:56:57.100Z,100856.81
2018-06-15T13:59:25.247Z,100847.19
2018-06-15T14:01:53.234Z,100843.71
2018-06-15T14:04:21.208Z,100848.11
2018-06-15T14:06:49.289Z,100847.33
2018-06-15T14:09:17.269Z,100846.59
2018-06-15T14:11:46.252Z,100850.53
2018-06-15T14:14:14.253Z,100843.70
2018-06-15T14:16:42.657Z,100843.60
2018-06-15T14:19:10.629Z,100845.62
2018-06-15T14:21:38.689Z,100849.12
2018-06-15T14:24:07.206Z,100842.57
2018-06-15T14:26:35.224Z,100842.80
2018-06-15T14:29:03.246Z,100848.86
2018-06-15T14:31:31.490Z,100847.59
2018-06-15T14:33:59.539Z,100840.91
2018-06-15T14:36:27.748Z,100837.38
2018-06-15T14:38:55.761Z,100838.97
2018-06-15T14:41:23.791Z,100835.81
2018-06-15T14:43:51.768Z,100836.81
2018-06-15T14:46:19.862Z,100832.52
2018-06-15T14:48:47.866Z,100838.10
2018-06-15T14:51:15.869Z,100832.09
2018-06-15T14:53:43.888Z,100837.17
2018-06-15T14:56:11.916Z,100835.37
2018-06-15T14:58:39.929Z,100828.41
2018-06-15T15:01:08.017Z,100834.02
2018-06-15T15:03:36.057Z,100829.38
2018-06-15T15:06:04.292Z,100832.65
2018-06-15T15:08:32.300Z,100830.40
2018-06-15T15:11:00.304Z,100828.32
2018-06-15T15:13:28.315Z,100822.97
2018-06-15T15:15:56.430Z,100827.77
2018-06-15T15:18:24.492Z,100820.21
2018-06-15T15:20:52.540Z,100829.97
2018-06-15T15:23:20.562Z,100824.03
2018-06-15T15:25:48.572Z,100822.12
2018-06-15T15:28:16.761Z,100820.59
2018-06-15T15:30:44.760Z,100823.04
2018-06-15T15:33:12.765Z,100825.56
2018-06-15T15:35:40.789Z,100825.41
2018-06-15T15:38:08.816Z,100819.52
2018-06-15T15:40:36.927Z,100819.30
2018-06-15T15:43:05.049Z,100819.74
2018-06-15T15:45:33.044Z,100812.65
2018-06-15T15:48:01.032Z,100817.50
2018-06-15T15:50:29.079Z,100815.65
2018-06-15T15:52:57.044Z,100815.79
2018-06-15T15:55:25.015Z,100811.92
2018-06-15T15:57:53.112Z,100810.67
2018-06-15T16:00:21.065Z,100816.94
2018-06-15T16:02:49.200Z,100814.02
2018-06-15T16:05:17.232Z,100807.63
2018-06-15T16:07:45.232Z,100810.11
2018-06-15T16:10:13.217Z,100815.54
2018-06-15T16:12:41.211Z,100813.05
2018-06-15T16:15:09.420Z,100813.03
2018-06-15T16:17:37.549Z,100813.86
2018-06-15T16:20:05.597Z,100808.11
2018-06-15T16:22:33.616Z,100807.39
2018-06-15T16:25:01.635Z,100803.44
2018-06-15T16:27:29.661Z,100796.95
2018-06-15T16:29:57.828Z,100802.80
2018-06-15T16:32:25.981Z,100799.45
2018-06-15T16:34:54.028Z,100807.08
2018-06-15T16:37:22.031Z,100807.53
2018-06-15T16:39:50.032Z,100794.17
2018-06-15T16:42:18.227Z,100796.27
2018-06-15T16:44:46.921Z,100801.45
2018-06-15T16:47:15.160Z,100800.55
2018-06-15T16:49:43.369Z,100804.34
2018-06-15T16:52:11.368Z,100797.47
2018-06-15T16:54:39.582Z,100792.27
2018-06-15T16:57:07.680Z,100794.45
2018-06-15T16:59:39.332Z,100796.26
2018-06-15T17:02:07.793Z,100801.14
2018-06-15T17:04:35.810Z,100797.09
2018-06-15T17:07:03.838Z,100788.41
2018-06-15T17:09:32.952Z,100791.38
2018-06-15T17:12:01.029Z,100788.41
2018-06-15T17:14:29.093Z,100794.99
2018-06-15T17:16:57.095Z,100797.66
2018-06-15T17:19:25.190Z,100798.66
2018-06-15T17:21:53.160Z,100802.98
2018-06-15T17:24:21.149Z,100814.05
2018-06-15T17:26:49.182Z,100805.91
2018-06-15T17:29:17.204Z,100800.77
2018-06-15T17:31:45.264Z,100798.84
2018-06-15T17:34:13.246Z,100808.56
2018-06-15T17:36:44.705Z,100805.77
2018-06-15T17:39:13.500Z,100803.45
2018-06-15T17:41:42.500Z,100803.27
2018-06-15T17:44:10.597Z,100803.69
2018-06-15T17:46:38.640Z,100808.23
2018-06-15T17:49:07.104Z,100803.73
2018-06-15T17:51:35.125Z,100800.00
2018-06-15T17:54:03.125Z,100799.56
2018-06-15T17:56:31.117Z,100807.59
2018-06-15T17:58:59.172Z,100803.49
2018-06-15T18:01:27.180Z,100803.20
2018-06-15T18:03:55.230Z,100804.94
2018-06-15T18:06:23.217Z,100809.25
2018-06-15T18:08:51.520Z,100803.02
2018-06-15T18:11:19.549Z,100809.06
2018-06-15T18:13:47.584Z,100803.95
2018-06-15T18:16:15.792Z,100812.20
2018-06-15T18:18:43.829Z,100810.44
2018-06-15T18:21:11.876Z,100809.36
2018-06-15T18:23:39.938Z,100811.59
2018-06-15T18:26:07.952Z,100816.45
2018-06-15T18:28:35.978Z,100820.08
2018-06-15T18:31:04.238Z,100811.69
2018-06-15T18:33:32.324Z,100811.31
2018-06-15T18:36:00.464Z,100812.89
2018-06-15T18:38:29.269Z,100813.89
2018-06-15T18:40:57.289Z,100807.78
2018-06-15T18:43:25.652Z,100816.57
2018-06-15T18:45:53.757Z,100823.48
2018-06-15T18:48:21.777Z,100823.16
2018-06-15T18:50:49.832Z,100826.45
2018-06-15T18:53:17.893Z,100818.02
2018-06-15T18:55:45.924Z,100824.59
2018-06-15T18:58:13.954Z,100818.88
2018-06-15T19:00:42.005Z,100821.97
2018-06-15T19:03:09.984Z,100818.40
2018-06-15T19:05:38.024Z,100812.27
2018-06-15T19:08:06.025Z,100817.58
2018-06-15T19:10:34.054Z,100821.60
2018-06-15T19:13:02.062Z,100816.31
2018-06-15T19:15:30.056Z,100812.43
2018-06-15T19:17:58.050Z,100812.22
2018-06-15T19:20:26.056Z,100806.83
2018-06-15T19:22:54.084Z,100818.03
2018-06-15T19:25:22.120Z,100815.92
2018-06-15T19:27:50.100Z,100807.84
2018-06-15T19:30:18.100Z,100813.91
2018-06-15T19:32:46.230Z,100810.70
2018-06-15T19:35:14.281Z,100816.05
2018-06-15T19:37:42.307Z,100810.73
2018-06-15T19:40:10.317Z,100815.95
2018-06-15T19:42:38.348Z,100819.68
2018-06-15T19:45:06.461Z,100813.28
2018-06-15T19:47:34.420Z,100812.93
2018-06-15T19:50:02.413Z,100818.85
2018-06-15T19:52:30.408Z,100820.22
2018-06-15T19:54:58.656Z,100828.95
2018-06-15T19:57:26.705Z,100830.33
2018-06-15T19:59:54.766Z,100826.27
2018-06-15T20:02:22.801Z,100827.30
2018-06-15T20:04:50.879Z,100833.50
2018-06-15T20:07:18.876Z,100828.12
2018-06-15T20:09:46.985Z,100824.41
2018-06-15T20:12:16.001Z,100828.27
2018-06-15T20:14:43.985Z,100829.94
2018-06-15T20:17:12.013Z,100836.33
2018-06-15T20:19:40.053Z,100831.95
2018-06-15T20:22:08.037Z,100828.38
2018-06-15T20:24:36.036Z,100824.83
2018-06-15T20:27:04.029Z,100831.48
2018-06-15T20:29:32.132Z,100833.31
2018-06-15T20:32:00.544Z,100828.20
2018-06-15T20:34:28.520Z,100826.13
2018-06-15T20:36:56.516Z,100826.23
2018-06-15T20:39:24.536Z,100819.33
2018-06-15T20:41:52.641Z,100820.06
2018-06-15T20:44:20.604Z,100815.86
2018-06-15T20:46:48.653Z,100813.89
2018-06-15T20:49:16.650Z,100818.32
2018-06-15T20:51:44.668Z,100819.00
2018-06-15T20:54:12.686Z,100821.76
2018-06-15T20:56:40.664Z,100815.45
2018-06-15T20:59:08.658Z,100815.16
2018-06-15T21:01:36.760Z,100812.30
2018-06-15T21:04:04.934Z,100811.52
2018-06-15T21:06:32.917Z,100806.94
2018-06-15T21:09:00.937Z,100805.54
2018-06-15T21:11:28.981Z,100806.83
2018-06-15T21:13:57.002Z,100798.09
2018-06-15T21:16:25.277Z,100807.50
2018-06-15T21:18:53.284Z,100805.84
2018-06-15T21:21:21.283Z,100812.66
2018-06-15T21:23:49.352Z,100819.36
2018-06-15T21:26:17.337Z,100811.95
2018-06-15T21:28:45.402Z,100806.28
2018-06-15T21:31:13.380Z,100807.67
2018-06-15T21:33:41.414Z,100807.42
2018-06-15T21:36:09.604Z,100813.51
2018-06-15T21:38:37.721Z,100815.33
2018-06-15T21:41:05.720Z,100816.70
2018-06-15T21:43:33.714Z,100813.82
2018-06-15T21:46:01.745Z,100813.16
2018-06-15T21:48:29.764Z,100806.52
2018-06-15T21:50:57.806Z,100807.98
2018-06-15T21:53:25.887Z,100797.13
2018-06-15T21:55:53.890Z,100803.72
2018-06-15T21:58:21.936Z,100802.17
2018-06-15T22:00:49.926Z,100793.27
2018-06-15T22:03:17.937Z,100791.66
2018-06-15T22:05:45.972Z,100787.55
2018-06-15T22:08:13.976Z,100785.60
2018-06-15T22:10:42.369Z,100786.39
2018-06-15T22:13:11.358Z,100781.92
2018-06-15T22:15:39.352Z,100785.91
2018-06-15T22:18:07.360Z,100786.34
2018-06-15T22:20:35.397Z,100783.32
2018-06-15T22:23:03.534Z,100783.19
2018-06-15T22:25:31.548Z,100783.32
2018-06-15T22:27:59.673Z,100784.59
2018-06-15T22:30:27.690Z,100783.93
2018-06-15T22:32:55.876Z,100787.55
2018-06-15T22:35:23.889Z,100783.96
2018-06-15T22:37:52.037Z,100790.37
2018-06-15T22:40:20.093Z,100790.42
2018-06-15T22:42:48.100Z,100790.14
2018-06-15T22:45:16.104Z,100789.87
2018-06-15T22:47:44.130Z,100784.20
2018-06-15T22:50:12.135Z,100786.06
2018-06-15T22:52:40.100Z,100784.34
2018-06-15T22:55:08.093Z,100785.70
2018-06-15T22:57:36.215Z,100782.37
2018-06-15T23:00:05.024Z,100780.06
2018-06-15T23:02:33.236Z,100776.63
2018-06-15T23:05:01.273Z,100780.75
2018-06-15T23:07:29.248Z,100776.04
2018-06-15T23:09:57.332Z,100776.67
2018-06-15T23:12:25.355Z,100783.00
2018-06-15T23:14:53.438Z,100782.47
2018-06-15T23:17:21.442Z,100783.30
2018-06-15T23:19:49.449Z,100778.38
2018-06-15T23:22:17.482Z,100782.43
2018-06-15T23:24:45.454Z,100782.80
2018-06-15T23:27:13.464Z,100784.44
2018-06-15T23:29:41.481Z,100781.62
2018-06-15T23:32:09.502Z,100781.19
2018-06-15T23:34:37.704Z,100783.09
2018-06-15T23:37:05.725Z,100786.97
2018-06-15T23:39:33.716Z,100783.47
2018-06-15T23:42:01.732Z,100788.61
2018-06-15T23:44:29.763Z,100786.66
2018-06-15T23:46:57.769Z,100784.23
2018-06-15T23:49:25.846Z,100791.61
2018-06-15T23:51:53.833Z,100789.59
2018-06-15T23:54:21.824Z,100793.60
2018-06-15T23:56:49.793Z,100791.48
2018-06-15T23:59:17.808Z,100797.12
